Dayton, WA

6:35 AM PDT on September 17, 2014 (GMT -0700)
Tri-Cities | Change Station
CLOSE
Current Station
Airport
Location: Pasco,
Elevation: 407 ft
Nearby Weather Stations

Elev 407 ft 46.26 °N, 119.12 °W | Updated 42 minutes ago

Partly Cloudy
Partly Cloudy
54 °F
Feels Like 54 °F
N
5
Wind Variable Wind from NW

Today
High -- | Low -- °F
--% Chance of Precip.
Yesterday
High -- | Low -- °F
Precip. -- in
6:32 AM 6:59 PM
Waning Crescent, 36% visible
Pressure 29.74 in
Visibility 10.0 miles
Clouds Clear
Dew Point 51 °F
Humidity 90%
Rainfall 0.00 in
Snow Depth 1 in , 0 in , 0 in
UV 0 out of 12
Pollen 7.10 out of 12
Air Quality Not available.
Flu Activity Not available.
METAR KPSC 171253Z 31004KT 10SM CLR 12/11 A2974 RMK AO2 SLP070 T01220106

More Conditions Fewer Conditions

Pressure 29.74 in
Visibility 10.0 miles
Clouds Clear
Dew Point 51 °F
Humidity 90%
Rainfall 0.00 in
Snow Depth 1 in , 0 in , 0 in
UV 0 out of 12
Pollen 7.10 out of 12
Air Quality Not available.
Flu Activity Not available.
METAR KPSC 171253Z 31004KT 10SM CLR 12/11 A2974 RMK AO2 SLP070 T01220106

More Conditions Fewer Conditions

10-Day Weather Forecast

Almanac

Astronomy

Sep. 17, 2014 Rise Set
Actual Time 6:32 AM PDT 6:59 PM PDT
Civil Twilight 6:02 AM PDT 7:29 PM PDT
Nautical Twilight 5:26 AM PDT 8:04 PM PDT
Astronomical Twilight 4:49 AM PDT 8:41 PM PDT
Moon 12:22 AM PDT 3:26 PM PDT
Length of Visible Light 13h 26m
Length of Day
12h 26m
Tomorrow will be 3m 15s shorter.
Waning Crescent, 36% of the Moon is Illuminated
Today
Waning Crescent
Sep 24
New
Oct 1
First Quarter
Oct 8
Full
Oct 15
Last Quarter

Today's Extremes

State Highs State Lows

Community

WunderPhotos

Upload Photos

1,754,029 photos uploaded!

Nearby

Snow Depth

Station Depth Elevation
Spruce Springs 1 in 5700 ft
Alpine Meadows 0 in 3500 ft
Potato Hill 0 in 4500 ft
Lost Horse 0 in 5000 ft
Bunchgrass Meadow 0 in 5000 ft

Earthquake Activity

City Distance Mag. Time & Date
No recent earthquake activity has been reported nearby.
Minimum magnitude displayed is 2.5.

Coastal Water Temperatures

Place Temperature
No Stations Reporting

Nearby Weather Stations